createdAt,value
2018-05-04T00:00:56.060Z,13.80
2018-05-04T00:03:23.729Z,13.81
2018-05-04T00:05:51.428Z,13.87
2018-05-04T00:08:19.209Z,13.98
2018-05-04T00:10:46.920Z,13.90
2018-05-04T00:13:14.603Z,13.90
2018-05-04T00:15:42.204Z,13.87
2018-05-04T00:18:09.865Z,13.96
2018-05-04T00:20:37.522Z,13.98
2018-05-04T00:23:05.158Z,14.03
2018-05-04T00:25:32.956Z,14.02
2018-05-04T00:28:00.585Z,13.97
2018-05-04T00:30:28.229Z,14.10
2018-05-04T00:32:55.915Z,14.04
2018-05-04T00:35:23.510Z,13.94
2018-05-04T00:37:51.163Z,13.77
2018-05-04T00:40:18.763Z,13.81
2018-05-04T00:42:46.659Z,13.74
2018-05-04T00:45:14.280Z,13.64
2018-05-04T00:47:41.956Z,13.72
2018-05-04T00:50:09.648Z,13.80
2018-05-04T00:52:37.257Z,13.87
2018-05-04T00:55:04.914Z,13.98
2018-05-04T00:57:32.574Z,13.91
2018-05-04T01:00:00.180Z,13.94
2018-05-04T01:02:27.838Z,13.97
2018-05-04T01:04:55.479Z,13.79
2018-05-04T01:07:23.089Z,13.82
2018-05-04T01:09:50.767Z,13.76
2018-05-04T01:12:18.846Z,13.77
2018-05-04T01:14:46.507Z,13.74
2018-05-04T01:17:14.219Z,13.65
2018-05-04T01:19:41.848Z,13.68
2018-05-04T01:22:09.497Z,13.70
2018-05-04T01:24:37.125Z,13.67
2018-05-04T01:27:04.813Z,13.58
2018-05-04T01:29:32.469Z,13.45
2018-05-04T01:32:00.130Z,13.47
2018-05-04T01:34:27.737Z,13.47
2018-05-04T01:36:55.397Z,13.49
2018-05-04T01:39:23.037Z,13.53
2018-05-04T01:41:50.707Z,13.64
2018-05-04T01:44:18.364Z,13.62
2018-05-04T01:46:45.976Z,13.69
2018-05-04T01:49:13.613Z,13.79
2018-05-04T01:51:41.567Z,13.69
2018-05-04T01:54:09.152Z,13.72
2018-05-04T01:56:36.794Z,13.68
2018-05-04T01:59:04.398Z,13.69
2018-05-04T02:01:32.114Z,13.64
2018-05-04T02:03:59.713Z,13.53
2018-05-04T02:06:27.440Z,13.41
2018-05-04T02:08:55.111Z,13.44
2018-05-04T02:11:22.809Z,13.55
2018-05-04T02:13:50.417Z,13.58
2018-05-04T02:16:18.091Z,13.41
2018-05-04T02:18:45.779Z,13.43
2018-05-04T02:21:13.474Z,13.32
2018-05-04T02:23:41.069Z,13.27
2018-05-04T02:26:09.230Z,13.27
2018-05-04T02:28:37.007Z,13.39
2018-05-04T02:31:04.754Z,13.52
2018-05-04T02:33:32.526Z,13.60
2018-05-04T02:36:00.453Z,13.59
2018-05-04T02:38:28.293Z,13.67
2018-05-04T02:40:56.120Z,13.69
2018-05-04T02:43:23.867Z,13.62
2018-05-04T02:45:51.590Z,13.59
2018-05-04T02:48:19.306Z,13.52
2018-05-04T02:50:46.901Z,13.60
2018-05-04T02:53:14.594Z,13.55
2018-05-04T02:55:42.608Z,13.54
2018-05-04T02:58:10.285Z,13.47
2018-05-04T03:00:38.134Z,13.52
2018-05-04T03:03:05.782Z,13.47
2018-05-04T03:05:33.432Z,13.36
2018-05-04T03:08:01.029Z,13.51
2018-05-04T03:10:28.695Z,13.46
2018-05-04T03:12:56.395Z,13.34
2018-05-04T03:15:24.026Z,13.34
2018-05-04T03:17:51.722Z,13.49
2018-05-04T03:20:19.344Z,13.55
2018-05-04T03:22:46.995Z,13.52
2018-05-04T03:25:15.392Z,13.58
2018-05-04T03:27:43.109Z,13.60
2018-05-04T03:30:10.716Z,13.59
2018-05-04T03:32:38.356Z,13.59
2018-05-04T03:35:06.036Z,13.59
2018-05-04T03:37:33.742Z,13.58
2018-05-04T03:40:01.398Z,13.63
2018-05-04T03:42:28.995Z,13.62
2018-05-04T03:44:56.626Z,13.57
2018-05-04T03:47:24.226Z,13.59
2018-05-04T03:49:51.880Z,13.62
2018-05-04T03:52:19.491Z,13.61
2018-05-04T03:54:47.176Z,13.66
2018-05-04T03:57:26.724Z,13.68
2018-05-04T04:00:06.139Z,13.64
2018-05-04T04:02:45.494Z,13.66
2018-05-04T04:05:13.186Z,13.61
2018-05-04T04:07:40.797Z,13.56
2018-05-04T04:10:08.488Z,13.52
2018-05-04T04:12:36.202Z,13.53
2018-05-04T04:15:03.836Z,13.58
2018-05-04T04:17:31.513Z,13.65
2018-05-04T04:19:59.119Z,13.65
2018-05-04T04:22:26.841Z,13.69
2018-05-04T04:24:54.502Z,13.67
2018-05-04T04:27:22.149Z,13.70
2018-05-04T04:29:49.788Z,13.66
2018-05-04T04:32:19.690Z,13.64
2018-05-04T04:34:47.336Z,13.49
2018-05-04T04:37:15.038Z,13.48
2018-05-04T04:39:42.706Z,13.58
2018-05-04T04:42:10.367Z,13.64
2018-05-04T04:44:37.989Z,13.67
2018-05-04T04:47:05.632Z,13.73
2018-05-04T04:49:33.289Z,13.70
2018-05-04T04:52:01.004Z,13.69
2018-05-04T04:54:28.702Z,13.75
2018-05-04T04:56:56.364Z,13.73
2018-05-04T04:59:24.985Z,13.69
2018-05-04T05:01:52.733Z,13.68
2018-05-04T05:04:20.421Z,13.63
2018-05-04T05:06:48.044Z,13.61
2018-05-04T05:09:15.682Z,13.77
2018-05-04T05:11:43.347Z,13.71
2018-05-04T05:14:10.996Z,13.85
2018-05-04T05:16:38.673Z,13.79
2018-05-04T05:19:06.490Z,13.58
2018-05-04T05:21:34.117Z,13.54
2018-05-04T05:24:01.889Z,13.61
2018-05-04T05:26:29.626Z,13.61
2018-05-04T05:28:57.301Z,13.42
2018-05-04T05:31:24.959Z,13.31
2018-05-04T05:33:52.590Z,13.39
2018-05-04T05:36:20.279Z,13.52
2018-05-04T05:38:47.945Z,13.65
2018-05-04T05:41:16.859Z,13.76
2018-05-04T05:43:45.651Z,13.77
2018-05-04T05:46:13.384Z,13.87
2018-05-04T05:48:41.093Z,13.90
2018-05-04T05:51:08.860Z,13.84
2018-05-04T05:53:36.645Z,13.84
2018-05-04T05:56:04.343Z,13.82
2018-05-04T05:58:31.936Z,13.83
2018-05-04T06:00:59.604Z,13.93
2018-05-04T06:03:27.313Z,13.91
2018-05-04T06:05:55.011Z,14.00
2018-05-04T06:08:22.641Z,13.99
2018-05-04T06:10:50.308Z,13.99
2018-05-04T06:13:17.971Z,13.95
2018-05-04T06:15:45.596Z,13.94
2018-05-04T06:18:13.347Z,14.06
2018-05-04T06:20:41.063Z,14.15
2018-05-04T06:23:08.712Z,14.21
2018-05-04T06:25:36.374Z,14.19
2018-05-04T06:28:04.058Z,14.16
2018-05-04T06:30:31.662Z,14.23
2018-05-04T06:32:59.404Z,14.25
2018-05-04T06:35:27.002Z,14.34
2018-05-04T06:37:54.746Z,14.45
2018-05-04T06:40:22.612Z,14.52
2018-05-04T06:42:50.436Z,14.54
2018-05-04T06:45:18.142Z,14.57
2018-05-04T06:47:45.780Z,14.60
2018-05-04T06:50:13.512Z,14.62
2018-05-04T06:52:41.263Z,14.71
2018-05-04T06:55:08.964Z,14.74
2018-05-04T06:57:36.668Z,14.81
2018-05-04T07:00:04.435Z,14.92
2018-05-04T07:02:32.075Z,15.00
2018-05-04T07:04:59.749Z,15.10
2018-05-04T07:07:27.400Z,15.18
2018-05-04T07:09:55.067Z,15.36
2018-05-04T07:12:22.693Z,15.42
2018-05-04T07:14:50.365Z,15.45
2018-05-04T07:17:18.060Z,15.34
2018-05-04T07:19:45.657Z,15.59
2018-05-04T07:22:13.284Z,15.67
2018-05-04T07:24:40.953Z,15.70
2018-05-04T07:27:08.588Z,15.87
2018-05-04T07:29:36.275Z,15.60
2018-05-04T07:32:03.922Z,15.48
2018-05-04T07:34:31.624Z,15.33
2018-05-04T07:36:59.290Z,15.50
2018-05-04T07:39:26.977Z,15.66
2018-05-04T07:41:54.697Z,15.86
2018-05-04T07:44:22.357Z,15.95
2018-05-04T07:46:49.983Z,15.78
2018-05-04T07:49:17.636Z,16.11
2018-05-04T07:51:45.302Z,16.51
2018-05-04T07:54:12.916Z,16.49
2018-05-04T07:56:40.713Z,16.44
2018-05-04T07:59:08.409Z,16.49
2018-05-04T08:01:36.479Z,16.69
2018-05-04T08:04:04.156Z,16.87
2018-05-04T08:06:31.889Z,17.12
2018-05-04T08:08:59.528Z,16.70
2018-05-04T08:11:27.512Z,16.51
2018-05-04T08:13:55.206Z,16.84
2018-05-04T08:16:22.917Z,16.71
2018-05-04T08:18:51.432Z,16.70
2018-05-04T08:21:19.221Z,16.74
2018-05-04T08:23:46.924Z,17.02
2018-05-04T08:26:14.572Z,17.88
2018-05-04T08:28:42.226Z,18.27
2018-05-04T08:31:09.958Z,18.06
2018-05-04T08:33:37.558Z,18.26
2018-05-04T08:36:05.187Z,18.18
2018-05-04T08:38:32.858Z,18.06
2018-05-04T08:41:00.485Z,18.44
2018-05-04T08:43:28.123Z,18.88
2018-05-04T08:45:55.837Z,18.68
2018-05-04T08:48:23.523Z,19.38
2018-05-04T08:50:51.240Z,19.14
2018-05-04T08:53:19.740Z,19.06
2018-05-04T08:55:48.483Z,18.81
2018-05-04T08:58:16.146Z,19.54
2018-05-04T09:00:45.005Z,19.35
2018-05-04T09:03:13.558Z,18.98
2018-05-04T09:05:41.366Z,18.64
2018-05-04T09:08:09.022Z,18.95
2018-05-04T09:10:37.354Z,18.63
2018-05-04T09:13:05.136Z,18.93
2018-05-04T09:15:33.674Z,18.63
2018-05-04T09:18:01.450Z,18.91
2018-05-04T09:20:29.090Z,18.76
2018-05-04T09:22:56.765Z,18.50
2018-05-04T09:25:24.465Z,18.36
2018-05-04T09:27:52.076Z,18.37
2018-05-04T09:30:19.720Z,17.96
2018-05-04T09:32:48.435Z,17.74
2018-05-04T09:35:16.115Z,17.77
2018-05-04T09:37:43.922Z,17.71
2018-05-04T09:40:11.551Z,17.57
2018-05-04T09:42:39.437Z,17.64
2018-05-04T09:45:07.096Z,17.79
2018-05-04T09:47:34.956Z,17.79
2018-05-04T09:50:02.651Z,17.71
2018-05-04T09:52:30.264Z,18.14
2018-05-04T09:54:57.874Z,18.42
2018-05-04T09:57:25.579Z,18.62
2018-05-04T09:59:53.908Z,18.54
2018-05-04T10:02:21.574Z,18.79
2018-05-04T10:04:50.120Z,18.54
2018-05-04T10:07:17.808Z,18.70
2018-05-04T10:09:45.422Z,18.74
2018-05-04T10:12:13.111Z,18.30
2018-05-04T10:14:40.768Z,18.13
2018-05-04T10:17:08.365Z,18.18
2018-05-04T10:19:36.025Z,18.14
2018-05-04T10:22:03.687Z,18.26
2018-05-04T10:24:31.331Z,18.53
2018-05-04T10:26:59.008Z,18.40
2018-05-04T10:29:26.749Z,18.09
2018-05-04T10:31:54.415Z,18.29
2018-05-04T10:34:22.108Z,18.48
2018-05-04T10:36:49.782Z,18.75
2018-05-04T10:39:17.447Z,18.42
2018-05-04T10:41:45.110Z,18.56
2018-05-04T10:44:12.766Z,18.68
2018-05-04T10:46:40.475Z,18.27
2018-05-04T10:49:08.089Z,18.33
2018-05-04T10:51:35.774Z,18.49
2018-05-04T10:54:03.439Z,18.27
2018-05-04T10:56:31.152Z,18.71
2018-05-04T10:58:58.799Z,18.60
2018-05-04T11:01:26.543Z,18.82
2018-05-04T11:03:54.166Z,18.93
2018-05-04T11:06:21.887Z,19.22
2018-05-04T11:08:49.591Z,19.10
2018-05-04T11:11:17.215Z,19.45
2018-05-04T11:13:44.915Z,19.33
2018-05-04T11:16:12.663Z,19.59
2018-05-04T11:18:40.403Z,19.01
2018-05-04T11:21:08.066Z,19.28
2018-05-04T11:23:35.778Z,19.13
2018-05-04T11:26:03.453Z,19.35
2018-05-04T11:28:31.094Z,19.61
2018-05-04T11:30:58.939Z,19.86
2018-05-04T11:33:26.571Z,19.93
2018-05-04T11:35:54.338Z,19.91
2018-05-04T11:38:22.033Z,19.77
2018-05-04T11:40:49.714Z,19.81
2018-05-04T11:43:17.407Z,20.10
2018-05-04T11:45:45.302Z,20.35
2018-05-04T11:48:12.989Z,20.23
2018-05-04T11:50:40.648Z,20.40
2018-05-04T11:53:08.314Z,20.48
2018-05-04T11:55:35.972Z,20.66
2018-05-04T11:58:03.685Z,20.85
2018-05-04T12:00:31.400Z,21.37
2018-05-04T12:02:59.134Z,21.75
2018-05-04T12:05:26.929Z,22.02
2018-05-04T12:07:54.749Z,21.89
2018-05-04T12:10:22.493Z,21.69
2018-05-04T12:12:50.125Z,21.98
2018-05-04T12:15:17.790Z,21.75
2018-05-04T12:17:45.683Z,21.45
2018-05-04T12:20:13.370Z,21.59
2018-05-04T12:22:41.058Z,21.03
2018-05-04T12:25:08.728Z,20.88
2018-05-04T12:27:36.401Z,20.91
2018-05-04T12:30:04.368Z,20.46
2018-05-04T12:32:32.006Z,20.34
2018-05-04T12:37:26.577Z,20.56
2018-05-04T12:39:54.913Z,20.64
2018-05-04T12:42:23.837Z,20.68
2018-05-04T12:44:51.617Z,20.86
2018-05-04T12:47:20.119Z,20.63
2018-05-04T12:49:47.791Z,20.83
2018-05-04T12:52:15.557Z,20.77
2018-05-04T12:54:43.261Z,21.29
2018-05-04T12:57:11.080Z,21.33
2018-05-04T12:59:38.752Z,21.13
2018-05-04T13:02:06.374Z,21.56
2018-05-04T13:04:34.275Z,21.31
2018-05-04T13:07:01.871Z,21.23
2018-05-04T13:09:29.607Z,21.19
2018-05-04T13:11:57.246Z,21.25
2018-05-04T13:14:25.867Z,21.45
2018-05-04T13:16:53.577Z,21.84
2018-05-04T13:19:21.206Z,21.95
2018-05-04T13:21:48.884Z,21.46
2018-05-04T13:24:16.495Z,21.19
2018-05-04T13:26:44.187Z,20.77
2018-05-04T13:29:11.820Z,20.68
2018-05-04T13:31:39.512Z,20.52
2018-05-04T13:34:07.122Z,20.50
2018-05-04T13:36:34.792Z,20.45
2018-05-04T13:39:02.491Z,20.54
2018-05-04T13:41:30.201Z,20.39
2018-05-04T13:43:57.904Z,20.84
2018-05-04T13:46:25.536Z,20.69
2018-05-04T13:48:53.983Z,20.55
2018-05-04T13:51:21.718Z,20.44
2018-05-04T13:53:49.272Z,20.70
2018-05-04T13:56:16.970Z,20.64
2018-05-04T13:58:44.658Z,20.85
2018-05-04T14:01:12.565Z,21.29
2018-05-04T14:03:40.224Z,20.95
2018-05-04T14:06:07.894Z,21.01
2018-05-04T14:08:35.697Z,20.50
2018-05-04T14:11:03.876Z,20.78
2018-05-04T14:13:31.574Z,21.13
2018-05-04T14:15:59.286Z,20.75
2018-05-04T14:18:26.988Z,20.84
2018-05-04T14:20:54.671Z,20.72
2018-05-04T14:23:22.360Z,20.72
2018-05-04T14:25:50.048Z,20.59
2018-05-04T14:28:17.715Z,20.30
2018-05-04T14:30:45.419Z,20.03
2018-05-04T14:33:13.081Z,20.33
2018-05-04T14:35:40.844Z,20.39
2018-05-04T14:38:08.546Z,20.60
2018-05-04T14:40:36.253Z,20.63
2018-05-04T14:43:03.912Z,20.48
2018-05-04T14:45:31.559Z,20.40
2018-05-04T14:47:59.186Z,20.48
2018-05-04T14:50:26.866Z,20.32
2018-05-04T14:52:54.673Z,20.14
2018-05-04T14:55:22.339Z,20.22
2018-05-04T14:57:50.100Z,20.21
2018-05-04T15:00:17.734Z,20.43
2018-05-04T15:02:45.392Z,20.15
2018-05-04T15:05:13.190Z,20.74
2018-05-04T15:07:40.917Z,20.59
2018-05-04T15:10:08.669Z,20.51
2018-05-04T15:12:36.503Z,19.84
2018-05-04T15:15:04.253Z,19.76
2018-05-04T15:17:33.144Z,19.57
2018-05-04T15:20:00.861Z,19.76
2018-05-04T15:22:28.600Z,19.56
2018-05-04T15:24:56.402Z,19.27
2018-05-04T15:27:24.090Z,19.60
2018-05-04T15:29:51.749Z,19.44
2018-05-04T15:32:20.395Z,19.35
2018-05-04T15:34:48.121Z,19.28
2018-05-04T15:37:16.516Z,18.95
2018-05-04T15:39:44.309Z,18.95
2018-05-04T15:42:11.965Z,18.61
2018-05-04T15:44:39.713Z,18.47
2018-05-04T15:47:07.392Z,18.41
2018-05-04T15:49:35.268Z,18.21
2018-05-04T15:52:06.555Z,17.98
2018-05-04T15:54:34.286Z,17.86
2018-05-04T15:57:02.787Z,18.05
2018-05-04T15:59:30.580Z,17.85
2018-05-04T16:01:58.325Z,17.85
2018-05-04T16:04:27.279Z,17.53
2018-05-04T16:06:55.024Z,17.63
2018-05-04T16:09:23.508Z,17.77
2018-05-04T16:11:51.226Z,17.78
2018-05-04T16:14:18.990Z,17.72
2018-05-04T16:16:46.676Z,17.67
2018-05-04T16:19:14.358Z,17.81
2018-05-04T16:21:42.939Z,17.70
2018-05-04T16:24:10.733Z,17.61
2018-05-04T16:26:38.528Z,17.86
2018-05-04T16:29:06.204Z,17.89
2018-05-04T16:31:34.235Z,17.77
2018-05-04T16:34:01.909Z,17.78
2018-05-04T16:36:29.993Z,17.70
2018-05-04T16:38:57.592Z,17.67
2018-05-04T16:41:25.286Z,17.59
2018-05-04T16:43:53.060Z,17.55
2018-05-04T16:46:27.441Z,17.72
2018-05-04T16:49:00.634Z,17.64
2018-05-04T16:51:28.352Z,17.73
2018-05-04T16:53:56.073Z,17.66
2018-05-04T16:56:24.363Z,17.47
2018-05-04T16:58:51.976Z,17.47
2018-05-04T17:01:19.689Z,17.45
2018-05-04T17:03:47.420Z,17.33
2018-05-04T17:06:15.176Z,17.19
2018-05-04T17:08:43.037Z,17.28
2018-05-04T17:11:11.130Z,17.03
2018-05-04T17:13:39.654Z,17.09
2018-05-04T17:16:07.642Z,17.05
2018-05-04T17:18:35.782Z,16.89
2018-05-04T17:21:03.853Z,16.96
2018-05-04T17:23:32.362Z,16.71
2018-05-04T17:26:00.147Z,16.75
2018-05-04T17:28:27.921Z,16.63
2018-05-04T17:30:55.642Z,16.50
2018-05-04T17:33:23.433Z,16.51
2018-05-04T17:35:51.170Z,16.62
2018-05-04T17:38:18.928Z,16.38
2018-05-04T17:40:46.837Z,16.55
2018-05-04T17:43:14.546Z,16.32
2018-05-04T17:45:42.389Z,16.31
2018-05-04T17:48:10.119Z,16.25
2018-05-04T17:50:37.967Z,16.31
2018-05-04T17:53:05.700Z,16.28
2018-05-04T17:55:33.428Z,16.35
2018-05-04T17:58:01.119Z,16.32
2018-05-04T18:00:28.997Z,16.29
2018-05-04T18:02:56.704Z,16.28
2018-05-04T18:05:24.514Z,16.16
2018-05-04T18:07:53.336Z,16.39
2018-05-04T18:10:21.400Z,16.19
2018-05-04T18:12:49.990Z,16.06
2018-05-04T18:15:19.025Z,16.12
2018-05-04T18:17:47.684Z,16.17
2018-05-04T18:20:16.123Z,16.10
2018-05-04T18:22:43.866Z,16.04
2018-05-04T18:25:11.886Z,16.06
2018-05-04T18:27:41.331Z,16.03
2018-05-04T18:30:09.188Z,16.09
2018-05-04T18:32:37.129Z,16.03
2018-05-04T18:35:04.848Z,15.92
2018-05-04T18:37:32.983Z,15.74
2018-05-04T18:40:01.013Z,15.89
2018-05-04T18:42:28.731Z,15.94
2018-05-04T18:44:57.386Z,15.83
2018-05-04T18:47:25.964Z,15.93
2018-05-04T18:49:55.164Z,16.00
2018-05-04T18:52:23.478Z,15.96
2018-05-04T18:54:51.394Z,15.92
2018-05-04T18:57:19.181Z,15.90
2018-05-04T18:59:48.083Z,15.94
2018-05-04T19:02:21.424Z,15.87
2018-05-04T19:04:49.248Z,15.80
2018-05-04T19:07:18.398Z,15.88
2018-05-04T19:09:46.104Z,15.86
2018-05-04T19:12:13.943Z,15.78
2018-05-04T19:14:41.713Z,15.79
2018-05-04T19:17:09.442Z,15.67
2018-05-04T19:19:37.727Z,15.72
2018-05-04T19:22:05.608Z,15.75
2018-05-04T19:24:33.312Z,15.91
2018-05-04T19:27:01.032Z,15.72
2018-05-04T19:29:28.963Z,15.61
2018-05-04T19:31:56.689Z,15.57
2018-05-04T19:34:24.440Z,15.49
2018-05-04T19:36:52.189Z,15.53
2018-05-04T19:39:20.692Z,15.56
2018-05-04T19:41:51.619Z,15.35
2018-05-04T19:44:19.416Z,15.23
2018-05-04T19:46:47.228Z,15.30
2018-05-04T19:49:15.005Z,15.31
2018-05-04T19:51:43.512Z,15.37
2018-05-04T19:54:12.218Z,15.39
2018-05-04T19:56:40.021Z,15.34
2018-05-04T19:59:07.688Z,15.36
2018-05-04T20:01:35.448Z,15.45
2018-05-04T20:04:03.620Z,15.53
2018-05-04T20:06:32.720Z,15.53
2018-05-04T20:09:00.692Z,15.52
2018-05-04T20:11:28.548Z,15.52
2018-05-04T20:13:56.264Z,15.53
2018-05-04T20:16:23.959Z,15.51
2018-05-04T20:18:51.584Z,15.48
2018-05-04T20:21:20.367Z,15.50
2018-05-04T20:23:48.840Z,15.48
2018-05-04T20:26:16.558Z,15.34
2018-05-04T20:28:44.295Z,15.43
2018-05-04T20:31:11.952Z,15.37
2018-05-04T20:33:39.577Z,15.43
2018-05-04T20:36:07.246Z,15.47
2018-05-04T20:38:34.959Z,15.43
2018-05-04T20:41:02.779Z,15.46
2018-05-04T20:43:30.599Z,15.49
2018-05-04T20:45:58.282Z,15.42
2018-05-04T20:48:26.007Z,15.39
2018-05-04T20:50:53.622Z,15.32
2018-05-04T20:53:21.290Z,15.13
2018-05-04T20:55:49.000Z,15.04
2018-05-04T20:58:16.693Z,14.99
2018-05-04T21:00:44.397Z,14.99
2018-05-04T21:03:12.064Z,15.12
2018-05-04T21:05:40.312Z,15.19
2018-05-04T21:08:08.321Z,15.29
2018-05-04T21:10:36.064Z,15.30
2018-05-04T21:13:03.835Z,15.29
2018-05-04T21:15:31.532Z,15.33
2018-05-04T21:17:59.357Z,15.34
2018-05-04T21:20:26.961Z,15.29
2018-05-04T21:22:54.746Z,15.17
2018-05-04T21:25:22.408Z,15.19
2018-05-04T21:27:51.634Z,15.22
2018-05-04T21:30:20.051Z,15.05
2018-05-04T21:32:47.744Z,15.10
2018-05-04T21:35:15.493Z,15.02
2018-05-04T21:37:43.107Z,14.91
2018-05-04T21:40:10.728Z,14.89
2018-05-04T21:42:38.385Z,15.04
2018-05-04T21:45:06.014Z,14.93
2018-05-04T21:47:33.775Z,14.98
2018-05-04T21:50:01.474Z,15.05
2018-05-04T21:52:29.236Z,15.00
2018-05-04T21:54:56.874Z,14.90
2018-05-04T21:57:24.545Z,14.88
2018-05-04T21:59:52.163Z,15.00
2018-05-04T22:02:19.843Z,15.01
2018-05-04T22:04:47.598Z,15.01
2018-05-04T22:07:15.168Z,14.97
2018-05-04T22:09:42.798Z,14.93
2018-05-04T22:12:10.503Z,14.89
2018-05-04T22:14:38.207Z,14.93
2018-05-04T22:17:06.918Z,14.99
2018-05-04T22:19:34.565Z,15.02
2018-05-04T22:22:02.191Z,14.92
2018-05-04T22:24:29.873Z,14.81
2018-05-04T22:26:57.553Z,14.80
2018-05-04T22:29:25.154Z,14.88
2018-05-04T22:31:52.835Z,14.78
2018-05-04T22:34:21.550Z,14.68
2018-05-04T22:36:49.227Z,14.67
2018-05-04T22:39:16.844Z,14.78
2018-05-04T22:41:44.493Z,14.67
2018-05-04T22:44:12.117Z,14.55
2018-05-04T22:46:39.798Z,14.46
2018-05-04T22:49:07.453Z,14.47
2018-05-04T22:51:35.109Z,14.59
2018-05-04T22:54:02.730Z,14.61
2018-05-04T22:56:30.509Z,14.60
2018-05-04T22:58:58.169Z,14.75
2018-05-04T23:01:25.836Z,14.75
2018-05-04T23:03:53.611Z,14.63
2018-05-04T23:06:21.350Z,14.57
2018-05-04T23:08:48.984Z,14.59
2018-05-04T23:11:16.625Z,14.58
2018-05-04T23:13:45.268Z,14.65
2018-05-04T23:16:13.102Z,14.51
2018-05-04T23:18:40.769Z,14.60
2018-05-04T23:21:08.384Z,14.57
2018-05-04T23:23:36.043Z,14.39
2018-05-04T23:26:03.645Z,14.33
2018-05-04T23:28:31.350Z,14.42
2018-05-04T23:30:58.986Z,14.49
2018-05-04T23:33:26.772Z,14.47
2018-05-04T23:35:54.553Z,14.58
2018-05-04T23:38:22.223Z,14.42
2018-05-04T23:40:50.520Z,14.24
2018-05-04T23:43:18.204Z,14.19
2018-05-04T23:45:45.837Z,14.16
2018-05-04T23:48:13.589Z,14.09
2018-05-04T23:50:41.220Z,14.16
2018-05-04T23:53:08.892Z,14.12
2018-05-04T23:55:36.496Z,14.26
2018-05-04T23:58:04.174Z,14.32
